Time;durP1;ratioP1;P1;durP2;ratioP2;P2;SDS_P1;SDS_P2;PMS_P1;PMS_P2;Temp;Humidity;BMP_temperature;BMP_pressure;BME280_temperature;BME280_humidity;BME280_pressure;Samples;Min_cycle;Max_cycle;Signal;HPM_P1;HPM_P2
2023/08/31 00:00:39;;;;;;;;;;;;;;;;;;5092156;27;20387;-71
2023/08/31 00:03:05;;;;;;;;;;;;;;;;;;5091037;28;19912;-71
2023/08/31 00:08:02;;;;;;;;;;;;;;;;;;5091814;27;19923;-72
2023/08/31 00:11:49;;;;;;;;;;;;;;;;;;5111866;27;19922;-71
2023/08/31 00:14:32;;;;;;;;;;;;;;;;;;5153128;27;20383;-71
2023/08/31 00:18:57;;;;;;;;;;;;;;;;;;5092205;27;19918;-72
2023/08/31 00:22:30;;;;;;;;;;;;;;;;;;5091915;27;19923;-71
2023/08/31 00:24:56;;;;;;;;;;;;;;;;;;5090821;28;20341;-71
2023/08/31 00:27:22;;;;;;;;;;;;;;;;;;5091786;28;19909;-71
2023/08/31 00:29:50;;;;;;;;;;;;;;;;;;5091275;28;19912;-72
2023/08/31 00:32:50;;;;;;;;;;;;;;;;;;5071299;28;20273;-71
2023/08/31 00:35:15;;;;;;;;;;;;;;;;;;5071152;28;19999;-72
2023/08/31 00:37:41;;;;;;;;;;;;;;;;;;5070617;28;20003;-72
2023/08/31 00:40:08;;;;;;;;;;;;;;;;;;5071236;28;19909;-71
2023/08/31 00:44:28;;;;;;;;;;;;;;;;;;5111605;27;19922;-72
2023/08/31 00:49:03;;;;;;;;;;;;;;;;;;5092090;27;20264;-72
2023/08/31 00:51:37;;;;;;;;;;;;;;;;;;5111996;27;20267;-71
2023/08/31 00:54:32;;;;;;;;;;;;;;;;;;5112527;27;20338;-71
2023/08/31 00:56:58;;;;;;;;;;;;;;;;;;5111686;28;19912;-71
2023/08/31 01:00:06;;;;;;;;;;;;;;;;;;5091104;27;19919;-71
2023/08/31 01:02:32;;;;;;;;;;;;;;;;;;5089991;28;19912;-72
2023/08/31 01:04:58;;;;;;;;;;;;;;;;;;5091277;28;19931;-72
2023/08/31 01:07:24;;;;;;;;;;;;;;;;;;5090852;28;20331;-72
2023/08/31 01:11:15;;;;;;;;;;;;;;;;;;5112315;27;19916;-72
2023/08/31 01:14:04;;;;;;;;;;;;;;;;;;5111595;27;19922;-71
2023/08/31 01:16:30;;;;;;;;;;;;;;;;;;5111782;28;20002;-71
2023/08/31 01:18:55;;;;;;;;;;;;;;;;;;5111661;28;20355;-71
2023/08/31 01:22:10;;;;;;;;;;;;;;;;;;5153391;27;20002;-71
2023/08/31 01:26:24;;;;;;;;;;;;;;;;;;5091427;28;19920;-72
2023/08/31 01:28:50;;;;;;;;;;;;;;;;;;5090965;28;20003;-72
2023/08/31 01:35:03;;;;;;;;;;;;;;;;;;5152777;27;19922;-73
2023/08/31 01:37:43;;;;;;;;;;;;;;;;;;5112707;27;19916;-73
2023/08/31 01:44:48;;;;;;;;;;;;;;;;;;5112126;27;19916;-73
2023/08/31 01:51:20;;;;;;;;;;;;;;;;;;5173783;27;19952;-72
2023/08/31 01:55:26;;;;;;;;;;;;;;;;;;5111968;27;19916;-71
2023/08/31 01:57:52;;;;;;;;;;;;;;;;;;5112001;28;20003;-71
2023/08/31 02:00:18;;;;;;;;;;;;;;;;;;5111643;28;19912;-71
2023/08/31 02:02:44;;;;;;;;;;;;;;;;;;5111268;28;19908;-71
2023/08/31 02:05:59;;;;;;;;;;;;;;;;;;5111831;27;19916;-71
2023/08/31 02:08:25;;;;;;;;;;;;;;;;;;5111640;28;20003;-72
2023/08/31 02:16:40;;;;;;;;;;;;;;;;;;5111782;27;19916;-73
2023/08/31 02:19:06;;;;;;;;;;;;;;;;;;5110526;28;20344;-72
2023/08/31 02:21:32;;;;;;;;;;;;;;;;;;5111619;28;19954;-72
2023/08/31 02:23:57;;;;;;;;;;;;;;;;;;5111195;28;19912;-72
2023/08/31 02:26:23;;;;;;;;;;;;;;;;;;5110327;28;19986;-72
2023/08/31 02:28:59;;;;;;;;;;;;;;;;;;5091885;27;20380;-71
2023/08/31 02:32:06;;;;;;;;;;;;;;;;;;5091009;28;19912;-71
2023/08/31 02:36:53;;;;;;;;;;;;;;;;;;5111914;27;19916;-72
2023/08/31 02:39:19;;;;;;;;;;;;;;;;;;5111680;28;20010;-72
2023/08/31 02:42:22;;;;;;;;;;;;;;;;;;5111818;27;19922;-72
2023/08/31 02:44:48;;;;;;;;;;;;;;;;;;5111289;28;19999;-72
2023/08/31 02:52:00;;;;;;;;;;;;;;;;;;5091580;27;20274;-72
2023/08/31 02:56:41;;;;;;;;;;;;;;;;;;5111992;27;19916;-72
2023/08/31 02:59:50;;;;;;;;;;;;;;;;;;5091098;27;19923;-71
2023/08/31 03:02:16;;;;;;;;;;;;;;;;;;5091478;28;19913;-71
2023/08/31 03:04:41;;;;;;;;;;;;;;;;;;5091213;28;20420;-71
2023/08/31 03:09:23;;;;;;;;;;;;;;;;;;5111764;27;20295;-71
2023/08/31 03:11:49;;;;;;;;;;;;;;;;;;5111626;28;20011;-72
2023/08/31 03:15:30;;;;;;;;;;;;;;;;;;5111643;27;19916;-71
2023/08/31 03:19:03;;;;;;;;;;;;;;;;;;5112478;27;19916;-71
2023/08/31 03:21:58;;;;;;;;;;;;;;;;;;5111935;27;19916;-71
2023/08/31 03:25:25;;;;;;;;;;;;;;;;;;5091850;27;20284;-71
2023/08/31 03:28:19;;;;;;;;;;;;;;;;;;5070817;28;19916;-71
2023/08/31 03:33:02;;;;;;;;;;;;;;;;;;5111905;27;19918;-71
2023/08/31 03:35:28;;;;;;;;;;;;;;;;;;5111313;28;20003;-71
2023/08/31 03:40:41;;;;;;;;;;;;;;;;;;5111294;27;19916;-71
2023/08/31 03:45:07;;;;;;;;;;;;;;;;;;5153045;27;20014;-72
2023/08/31 03:47:33;;;;;;;;;;;;;;;;;;5153039;27;19923;-72
2023/08/31 03:52:35;;;;;;;;;;;;;;;;;;5111740;27;19916;-71
2023/08/31 03:57:33;;;;;;;;;;;;;;;;;;5091518;27;19923;-71
2023/08/31 03:59:58;;;;;;;;;;;;;;;;;;5091282;28;20003;-71
2023/08/31 04:02:24;;;;;;;;;;;;;;;;;;5090843;28;19954;-71
2023/08/31 04:04:50;;;;;;;;;;;;;;;;;;5091186;28;19962;-71
2023/08/31 04:08:15;;;;;;;;;;;;;;;;;;5112231;27;19916;-71
2023/08/31 04:10:41;;;;;;;;;;;;;;;;;;5111505;28;20340;-71
2023/08/31 04:13:07;;;;;;;;;;;;;;;;;;5111664;28;20013;-71
2023/08/31 04:16:40;;;;;;;;;;;;;;;;;;5111563;27;20402;-71
2023/08/31 04:19:06;;;;;;;;;;;;;;;;;;5111661;28;19998;-71
2023/08/31 04:23:59;;;;;;;;;;;;;;;;;;5111587;27;19922;-71
2023/08/31 04:26:57;;;;;;;;;;;;;;;;;;5132413;27;20410;-71
2023/08/31 04:29:23;;;;;;;;;;;;;;;;;;5130881;28;19995;-71
2023/08/31 04:31:49;;;;;;;;;;;;;;;;;;5131761;28;19953;-71
2023/08/31 04:34:15;;;;;;;;;;;;;;;;;;5132095;28;19961;-72
2023/08/31 04:36:41;;;;;;;;;;;;;;;;;;5131649;28;20299;-71
2023/08/31 04:39:07;;;;;;;;;;;;;;;;;;5132238;28;19908;-71
2023/08/31 04:43:49;;;;;;;;;;;;;;;;;;5091644;27;19921;-71
2023/08/31 04:46:15;;;;;;;;;;;;;;;;;;5091339;28;20010;-72
2023/08/31 04:48:41;;;;;;;;;;;;;;;;;;5091243;28;19920;-71
2023/08/31 04:51:29;;;;;;;;;;;;;;;;;;5091074;27;19923;-71
2023/08/31 04:58:27;;;;;;;;;;;;;;;;;;5071258;28;20412;-71
2023/08/31 05:03:10;;;;;;;;;;;;;;;;;;5152918;27;20010;-72
2023/08/31 05:05:36;;;;;;;;;;;;;;;;;;5152460;27;20335;-72
2023/08/31 05:08:12;;;;;;;;;;;;;;;;;;5112270;27;20388;-71
2023/08/31 05:14:29;;;;;;;;;;;;;;;;;;5112207;27;19916;-72
2023/08/31 05:23:28;;;;;;;;;;;;;;;;;;5112244;27;20298;-71
2023/08/31 05:30:27;;;;;;;;;;;;;;;;;;5111797;27;19923;-71
2023/08/31 05:32:53;;;;;;;;;;;;;;;;;;5111836;28;20002;-71
2023/08/31 05:35:42;;;;;;;;;;;;;;;;;;5091808;27;19916;-71
2023/08/31 05:40:06;;;;;;;;;;;;;;;;;;5111297;27;19930;-71
2023/08/31 05:44:50;;;;;;;;;;;;;;;;;;5091698;27;19923;-71
2023/08/31 05:49:55;;;;;;;;;;;;;;;;;;5091273;27;20299;-71
2023/08/31 05:52:21;;;;;;;;;;;;;;;;;;5091327;28;20007;-71
2023/08/31 05:54:57;;;;;;;;;;;;;;;;;;5111356;27;19922;-71
2023/08/31 06:00:29;;;;;;;;;;;;;;;;;;5091010;27;20376;-71
2023/08/31 06:02:55;;;;;;;;;;;;;;;;;;5087575;28;20003;-72
2023/08/31 06:05:21;;;;;;;;;;;;;;;;;;5090382;28;19912;-72
2023/08/31 06:10:09;;;;;;;;;;;;;;;;;;5090720;27;20460;-66
2023/08/31 06:12:36;;;;;;;;;;;;;;;;;;5089350;28;19948;-67
2023/08/31 06:15:39;;;;;;;;;;;;;;;;;;5110699;27;19919;-68
2023/08/31 06:18:51;;;;;;;;;;;;;;;;;;5110427;27;19916;-68
2023/08/31 06:23:58;;;;;;;;;;;;;;;;;;5109603;27;19916;-68
2023/08/31 06:26:24;;;;;;;;;;;;;;;;;;5110712;28;20367;-68
2023/08/31 06:29:10;;;;;;;;;;;;;;;;;;5125582;27;20007;-72
2023/08/31 06:36:50;;;;;;;;;;;;;;;;;;5110528;27;20410;-70
2023/08/31 06:40:59;;;;;;;;;;;;;;;;;;5089578;27;19920;-69
2023/08/31 06:43:26;;;;;;;;;;;;;;;;;;5090041;28;19918;-71
2023/08/31 06:45:52;;;;;;;;;;;;;;;;;;5080289;28;19908;-71
2023/08/31 06:53:05;;;;;;;;;;;;;;;;;;5089661;27;19923;-70
2023/08/31 06:58:53;;;;;;;;;;;;;;;;;;5086492;27;20447;-74
2023/08/31 07:01:39;;;;;;;;;;;;;;;;;;5088512;27;19919;-71
2023/08/31 07:06:22;;;;;;;;;;;;;;;;;;5069903;28;19921;-71
2023/08/31 07:08:49;;;;;;;;;;;;;;;;;;5070345;28;19912;-70
2023/08/31 07:14:31;;;;;;;;;;;;;;;;;;5109299;27;19939;-71
2023/08/31 07:19:30;;;;;;;;;;;;;;;;;;5085501;27;19927;-66
2023/08/31 07:21:56;;;;;;;;;;;;;;;;;;5085361;28;19912;-67
2023/08/31 07:24:22;;;;;;;;;;;;;;;;;;5084806;28;20497;-67
2023/08/31 07:26:48;;;;;;;;;;;;;;;;;;5083745;28;20291;-67
2023/08/31 07:29:14;;;;;;;;;;;;;;;;;;5086522;28;19976;-69
2023/08/31 07:37:43;;;;;;;;;;;;;;;;;;5086696;27;19920;-70
2023/08/31 07:40:09;;;;;;;;;;;;;;;;;;5085630;28;19922;-67
2023/08/31 07:42:35;;;;;;;;;;;;;;;;;;5086917;28;19917;-70
2023/08/31 07:46:21;;;;;;;;;;;;;;;;;;5106777;27;19926;-69
2023/08/31 07:50:14;;;;;;;;;;;;;;;;;;5099110;28;20307;-68
2023/08/31 07:53:10;;;;;;;;;;;;;;;;;;5096498;27;19916;-69
2023/08/31 07:56:46;;;;;;;;;;;;;;;;;;5105670;27;19926;-68
2023/08/31 07:59:12;;;;;;;;;;;;;;;;;;5090396;28;19912;-71
2023/08/31 08:04:11;;;;;;;;;;;;;;;;;;5066362;27;19923;-70
2023/08/31 08:06:37;;;;;;;;;;;;;;;;;;5068555;28;19913;-71
2023/08/31 08:10:03;;;;;;;;;;;;;;;;;;5149777;27;19922;-71
2023/08/31 08:12:29;;;;;;;;;;;;;;;;;;5136134;27;19912;-70
2023/08/31 08:14:55;;;;;;;;;;;;;;;;;;5115471;28;19964;-69
2023/08/31 08:17:21;;;;;;;;;;;;;;;;;;5108012;28;19914;-71
2023/08/31 08:21:41;;;;;;;;;;;;;;;;;;5117009;27;19920;-68
2023/08/31 08:24:07;;;;;;;;;;;;;;;;;;5122108;28;19958;-67
2023/08/31 08:26:33;;;;;;;;;;;;;;;;;;5103983;28;19959;-68
2023/08/31 08:28:59;;;;;;;;;;;;;;;;;;5106082;28;19912;-70
2023/08/31 08:31:25;;;;;;;;;;;;;;;;;;5106265;28;19909;-70
2023/08/31 08:33:51;;;;;;;;;;;;;;;;;;5098155;28;19970;-67
2023/08/31 08:36:17;;;;;;;;;;;;;;;;;;5102678;28;19916;-68
2023/08/31 08:38:43;;;;;;;;;;;;;;;;;;5090276;28;19913;-68
2023/08/31 08:41:09;;;;;;;;;;;;;;;;;;5100292;28;19939;-70
2023/08/31 08:44:10;;;;;;;;;;;;;;;;;;5091928;27;19924;-69
2023/08/31 08:46:36;;;;;;;;;;;;;;;;;;5103170;28;20576;-68
2023/08/31 08:49:02;;;;;;;;;;;;;;;;;;5092269;28;20288;-68
2023/08/31 08:51:28;;;;;;;;;;;;;;;;;;5088877;28;19912;-69
2023/08/31 08:53:54;;;;;;;;;;;;;;;;;;5096729;28;19919;-69
2023/08/31 08:56:20;;;;;;;;;;;;;;;;;;5104738;28;19916;-69
2023/08/31 08:58:46;;;;;;;;;;;;;;;;;;5106962;28;19919;-69
2023/08/31 09:01:12;;;;;;;;;;;;;;;;;;5091298;28;19908;-69
2023/08/31 09:03:38;;;;;;;;;;;;;;;;;;5107097;28;19927;-69
2023/08/31 09:06:07;;;;;;;;;;;;;;;;;;5089758;28;19932;-70
2023/08/31 09:08:33;;;;;;;;;;;;;;;;;;5093075;28;19919;-71
2023/08/31 09:10:59;;;;;;;;;;;;;;;;;;5110399;28;20022;-71
2023/08/31 09:13:25;;;;;;;;;;;;;;;;;;5110258;28;19920;-70
2023/08/31 09:15:51;;;;;;;;;;;;;;;;;;5110438;28;19997;-70
2023/08/31 09:18:17;;;;;;;;;;;;;;;;;;5104029;28;19977;-70
2023/08/31 09:20:44;;;;;;;;;;;;;;;;;;5090509;28;19923;-69
2023/08/31 09:23:10;;;;;;;;;;;;;;;;;;5107110;28;19978;-69
2023/08/31 09:25:36;;;;;;;;;;;;;;;;;;5094191;28;19952;-69
2023/08/31 09:28:01;;;;;;;;;;;;;;;;;;5099249;28;19912;-70
2023/08/31 09:30:27;;;;;;;;;;;;;;;;;;5082773;28;19919;-70
2023/08/31 09:32:54;;;;;;;;;;;;;;;;;;5079216;28;19926;-71
2023/08/31 09:35:20;;;;;;;;;;;;;;;;;;5080351;28;20369;-70
2023/08/31 09:37:45;;;;;;;;;;;;;;;;;;5077208;28;20471;-71
2023/08/31 09:42:09;;;;;;;;;;;;;;;;;;5094236;28;19924;-69
2023/08/31 09:44:35;;;;;;;;;;;;;;;;;;5099950;28;19986;-69
2023/08/31 09:47:02;;;;;;;;;;;;;;;;;;5089217;28;20269;-70
2023/08/31 09:49:28;;;;;;;;;;;;;;;;;;5087839;28;19916;-69
2023/08/31 09:51:54;;;;;;;;;;;;;;;;;;5083953;28;19954;-69
2023/08/31 09:54:21;;;;;;;;;;;;;;;;;;5094453;28;20320;-69
2023/08/31 09:56:47;;;;;;;;;;;;;;;;;;5096502;28;19918;-69
2023/08/31 09:59:13;;;;;;;;;;;;;;;;;;5090247;28;19913;-70
2023/08/31 10:01:39;;;;;;;;;;;;;;;;;;5086695;28;19927;-70
2023/08/31 10:04:07;;;;;;;;;;;;;;;;;;5090114;28;20464;-69
2023/08/31 10:06:33;;;;;;;;;;;;;;;;;;5086344;28;19919;-69
2023/08/31 10:08:59;;;;;;;;;;;;;;;;;;5087106;28;19912;-70
2023/08/31 10:11:25;;;;;;;;;;;;;;;;;;5086350;28;19908;-70
2023/08/31 10:13:56;;;;;;;;;;;;;;;;;;5081582;28;20368;-70
2023/08/31 10:16:23;;;;;;;;;;;;;;;;;;5086144;28;19918;-69
2023/08/31 10:18:50;;;;;;;;;;;;;;;;;;5083694;28;19916;-68
2023/08/31 10:21:16;;;;;;;;;;;;;;;;;;5074397;28;19981;-69
2023/08/31 10:23:42;;;;;;;;;;;;;;;;;;5086223;28;19911;-68
2023/08/31 10:26:08;;;;;;;;;;;;;;;;;;5089284;28;19973;-69
2023/08/31 10:28:34;;;;;;;;;;;;;;;;;;5089405;28;19954;-68
2023/08/31 10:31:01;;;;;;;;;;;;;;;;;;5087664;28;20419;-70
2023/08/31 10:33:27;;;;;;;;;;;;;;;;;;5080350;28;19912;-68
2023/08/31 10:35:53;;;;;;;;;;;;;;;;;;5076402;28;20324;-68
2023/08/31 10:38:19;;;;;;;;;;;;;;;;;;5081907;28;20326;-68
2023/08/31 10:40:45;;;;;;;;;;;;;;;;;;5106152;28;19927;-69
2023/08/31 10:43:11;;;;;;;;;;;;;;;;;;5109506;28;19965;-69
2023/08/31 10:45:37;;;;;;;;;;;;;;;;;;5091485;28;19961;-68
2023/08/31 10:48:03;;;;;;;;;;;;;;;;;;5109184;28;19919;-71
2023/08/31 10:50:29;;;;;;;;;;;;;;;;;;5090413;28;19916;-67
2023/08/31 10:52:55;;;;;;;;;;;;;;;;;;5080945;28;19912;-67
2023/08/31 10:55:25;;;;;;;;;;;;;;;;;;5095228;28;19994;-68
2023/08/31 10:57:51;;;;;;;;;;;;;;;;;;5074941;28;19958;-68
2023/08/31 11:00:17;;;;;;;;;;;;;;;;;;5093059;28;19923;-68
2023/08/31 11:02:43;;;;;;;;;;;;;;;;;;5096210;28;19909;-68
2023/08/31 11:05:09;;;;;;;;;;;;;;;;;;5080978;28;19924;-69
2023/08/31 11:07:35;;;;;;;;;;;;;;;;;;5078152;28;19913;-69
2023/08/31 11:10:01;;;;;;;;;;;;;;;;;;5089141;28;19923;-69
2023/08/31 11:12:27;;;;;;;;;;;;;;;;;;5095199;28;19912;-69
2023/08/31 11:14:53;;;;;;;;;;;;;;;;;;5087689;28;19995;-70
2023/08/31 11:17:19;;;;;;;;;;;;;;;;;;5077118;28;19912;-69
2023/08/31 11:19:45;;;;;;;;;;;;;;;;;;5095337;28;20322;-69
2023/08/31 11:22:11;;;;;;;;;;;;;;;;;;5095452;28;19916;-69
2023/08/31 11:24:37;;;;;;;;;;;;;;;;;;5095448;28;19909;-68
2023/08/31 11:27:03;;;;;;;;;;;;;;;;;;5076497;28;19920;-70
2023/08/31 11:29:29;;;;;;;;;;;;;;;;;;5088291;28;19920;-69
2023/08/31 11:31:55;;;;;;;;;;;;;;;;;;5096595;28;19911;-68
2023/08/31 11:34:21;;;;;;;;;;;;;;;;;;5104199;28;19916;-69
2023/08/31 11:36:47;;;;;;;;;;;;;;;;;;5075334;28;19912;-69
2023/08/31 11:39:14;;;;;;;;;;;;;;;;;;5094725;28;19951;-68
2023/08/31 11:41:43;;;;;;;;;;;;;;;;;;5094192;28;19931;-69
2023/08/31 11:44:09;;;;;;;;;;;;;;;;;;5102898;28;19920;-70
2023/08/31 11:46:35;;;;;;;;;;;;;;;;;;5107730;28;20270;-70
2023/08/31 11:49:01;;;;;;;;;;;;;;;;;;5092819;28;19912;-71
2023/08/31 11:51:30;;;;;;;;;;;;;;;;;;5074915;28;19913;-71
2023/08/31 11:53:58;;;;;;;;;;;;;;;;;;5093811;28;20237;-70
2023/08/31 11:56:24;;;;;;;;;;;;;;;;;;5091295;28;19916;-71
2023/08/31 11:58:50;;;;;;;;;;;;;;;;;;5094949;28;19919;-70
2023/08/31 12:01:16;;;;;;;;;;;;;;;;;;5093636;28;19920;-70
2023/08/31 12:03:42;;;;;;;;;;;;;;;;;;5066122;28;19909;-70
2023/08/31 12:06:08;;;;;;;;;;;;;;;;;;5069397;28;19923;-71
2023/08/31 12:08:35;;;;;;;;;;;;;;;;;;5093288;28;19916;-69
2023/08/31 12:11:02;;;;;;;;;;;;;;;;;;5094261;28;19912;-70
2023/08/31 12:13:28;;;;;;;;;;;;;;;;;;5095084;28;19908;-71
2023/08/31 12:15:54;;;;;;;;;;;;;;;;;;5090958;28;19920;-69
2023/08/31 12:18:20;;;;;;;;;;;;;;;;;;5094437;28;19923;-71
2023/08/31 12:20:46;;;;;;;;;;;;;;;;;;5082722;28;19962;-71
2023/08/31 12:23:14;;;;;;;;;;;;;;;;;;5055039;28;20340;-71
2023/08/31 12:25:40;;;;;;;;;;;;;;;;;;5072460;28;20007;-73
2023/08/31 12:28:06;;;;;;;;;;;;;;;;;;5078272;28;20545;-71
2023/08/31 12:30:33;;;;;;;;;;;;;;;;;;5092941;28;20360;-71
2023/08/31 12:32:58;;;;;;;;;;;;;;;;;;5074984;28;19912;-71
2023/08/31 12:35:24;;;;;;;;;;;;;;;;;;5092864;28;19961;-71
2023/08/31 12:37:50;;;;;;;;;;;;;;;;;;5093831;28;19908;-71
2023/08/31 12:40:19;;;;;;;;;;;;;;;;;;5076075;28;20033;-73
2023/08/31 12:42:45;;;;;;;;;;;;;;;;;;5076126;28;19908;-72
2023/08/31 12:45:11;;;;;;;;;;;;;;;;;;5094524;28;19908;-72
2023/08/31 12:47:37;;;;;;;;;;;;;;;;;;5076234;28;19908;-72
2023/08/31 12:50:03;;;;;;;;;;;;;;;;;;5094152;28;19961;-72
2023/08/31 12:52:29;;;;;;;;;;;;;;;;;;5094563;28;19941;-72
2023/08/31 12:57:26;;;;;;;;;;;;;;;;;;5091059;28;19916;-72
2023/08/31 12:59:52;;;;;;;;;;;;;;;;;;5091237;28;19991;-71
2023/08/31 13:05:32;;;;;;;;;;;;;;;;;;5091685;28;19916;-72
2023/08/31 13:07:58;;;;;;;;;;;;;;;;;;5091298;28;20015;-73
2023/08/31 13:10:24;;;;;;;;;;;;;;;;;;5090884;28;19908;-72
2023/08/31 13:12:50;;;;;;;;;;;;;;;;;;5091234;28;19938;-72
2023/08/31 13:15:16;;;;;;;;;;;;;;;;;;5091329;28;20003;-72
2023/08/31 13:18:39;;;;;;;;;;;;;;;;;;5091449;27;19912;-72
2023/08/31 13:21:05;;;;;;;;;;;;;;;;;;5092079;28;20015;-72
2023/08/31 13:23:31;;;;;;;;;;;;;;;;;;5091273;28;20339;-72
2023/08/31 13:27:38;;;;;;;;;;;;;;;;;;5092631;27;19913;-72
2023/08/31 13:30:05;;;;;;;;;;;;;;;;;;5092002;28;20011;-72
2023/08/31 13:32:31;;;;;;;;;;;;;;;;;;5092064;28;19995;-72
2023/08/31 13:34:57;;;;;;;;;;;;;;;;;;5091437;28;19951;-73
2023/08/31 13:37:23;;;;;;;;;;;;;;;;;;5092307;28;19913;-73
2023/08/31 13:39:49;;;;;;;;;;;;;;;;;;5090846;28;19916;-73
2023/08/31 13:42:16;;;;;;;;;;;;;;;;;;5092259;28;19909;-72
2023/08/31 13:44:42;;;;;;;;;;;;;;;;;;5091442;28;19909;-72
2023/08/31 13:48:56;;;;;;;;;;;;;;;;;;5153910;27;19937;-72
2023/08/31 13:51:22;;;;;;;;;;;;;;;;;;5153342;27;19912;-72
2023/08/31 13:53:48;;;;;;;;;;;;;;;;;;5152468;27;19907;-72
2023/08/31 14:00:58;;;;;;;;;;;;;;;;;;5153240;27;20271;-73
2023/08/31 14:03:24;;;;;;;;;;;;;;;;;;5153857;27;19919;-73
2023/08/31 14:05:50;;;;;;;;;;;;;;;;;;5153273;27;19907;-73
2023/08/31 14:08:16;;;;;;;;;;;;;;;;;;5152818;27;19907;-73
2023/08/31 14:10:42;;;;;;;;;;;;;;;;;;5153087;27;19915;-73
2023/08/31 14:13:52;;;;;;;;;;;;;;;;;;5091616;27;19916;-73
2023/08/31 14:16:18;;;;;;;;;;;;;;;;;;5091762;28;19966;-74
2023/08/31 14:21:22;;;;;;;;;;;;;;;;;;5092133;27;19922;-74
2023/08/31 14:25:29;;;;;;;;;;;;;;;;;;5112562;27;19916;-72
2023/08/31 14:27:55;;;;;;;;;;;;;;;;;;5112520;28;20010;-73
2023/08/31 14:30:21;;;;;;;;;;;;;;;;;;5113495;28;19908;-73
2023/08/31 14:32:47;;;;;;;;;;;;;;;;;;5112007;28;20387;-73
2023/08/31 14:35:13;;;;;;;;;;;;;;;;;;5113873;28;19908;-73
2023/08/31 14:37:39;;;;;;;;;;;;;;;;;;5112808;28;19995;-73
2023/08/31 14:41:20;;;;;;;;;;;;;;;;;;5093033;27;20394;-73
2023/08/31 14:45:12;;;;;;;;;;;;;;;;;;5092613;27;20372;-75
2023/08/31 14:47:38;;;;;;;;;;;;;;;;;;5091615;28;20019;-73
2023/08/31 14:50:04;;;;;;;;;;;;;;;;;;5090760;28;20364;-72
2023/08/31 14:52:30;;;;;;;;;;;;;;;;;;5091243;28;19908;-72
2023/08/31 14:54:56;;;;;;;;;;;;;;;;;;5091051;28;19931;-73
2023/08/31 14:57:22;;;;;;;;;;;;;;;;;;5090741;28;19919;-73
2023/08/31 14:59:53;;;;;;;;;;;;;;;;;;5091021;28;19966;-72
2023/08/31 15:02:21;;;;;;;;;;;;;;;;;;5091579;28;20233;-72
2023/08/31 15:04:47;;;;;;;;;;;;;;;;;;5090644;28;19916;-73
2023/08/31 15:07:13;;;;;;;;;;;;;;;;;;5091272;28;19934;-73
2023/08/31 15:09:39;;;;;;;;;;;;;;;;;;5090596;28;19912;-73
2023/08/31 15:12:05;;;;;;;;;;;;;;;;;;5091406;28;19916;-73
2023/08/31 15:14:31;;;;;;;;;;;;;;;;;;5091552;28;19976;-73
2023/08/31 15:16:57;;;;;;;;;;;;;;;;;;5090871;28;19999;-73
2023/08/31 15:19:23;;;;;;;;;;;;;;;;;;5091465;28;19909;-73
2023/08/31 15:21:49;;;;;;;;;;;;;;;;;;5091275;28;19912;-72
2023/08/31 15:24:15;;;;;;;;;;;;;;;;;;5090310;28;19917;-72
2023/08/31 15:26:41;;;;;;;;;;;;;;;;;;5090968;28;20000;-72
2023/08/31 15:29:07;;;;;;;;;;;;;;;;;;5091425;28;20479;-72
2023/08/31 15:34:38;;;;;;;;;;;;;;;;;;5091608;27;19918;-72
2023/08/31 15:41:35;;;;;;;;;;;;;;;;;;5050986;28;20261;-72
2023/08/31 15:44:01;;;;;;;;;;;;;;;;;;5051156;28;20380;-72
2023/08/31 15:46:27;;;;;;;;;;;;;;;;;;5065934;28;19909;-73
2023/08/31 15:48:53;;;;;;;;;;;;;;;;;;5051035;28;20004;-72
2023/08/31 15:53:31;;;;;;;;;;;;;;;;;;5111776;27;19912;-72
2023/08/31 15:55:57;;;;;;;;;;;;;;;;;;5110268;28;20295;-72
2023/08/31 15:59:05;;;;;;;;;;;;;;;;;;5091033;27;19919;-73
2023/08/31 16:01:31;;;;;;;;;;;;;;;;;;5091241;28;19938;-72
2023/08/31 16:03:57;;;;;;;;;;;;;;;;;;5091332;28;19954;-72
2023/08/31 16:06:23;;;;;;;;;;;;;;;;;;5106354;28;19909;-72
2023/08/31 16:08:49;;;;;;;;;;;;;;;;;;5091271;28;19908;-72
2023/08/31 16:12:58;;;;;;;;;;;;;;;;;;5091422;27;19916;-71
2023/08/31 16:15:26;;;;;;;;;;;;;;;;;;5092108;28;19916;-73
2023/08/31 16:17:52;;;;;;;;;;;;;;;;;;5091807;28;19920;-72
2023/08/31 16:21:54;;;;;;;;;;;;;;;;;;5091346;27;19939;-72
2023/08/31 16:24:20;;;;;;;;;;;;;;;;;;5093040;28;20427;-73
2023/08/31 16:26:46;;;;;;;;;;;;;;;;;;5091921;28;19908;-72
2023/08/31 16:29:12;;;;;;;;;;;;;;;;;;5091039;28;19934;-73
2023/08/31 16:31:38;;;;;;;;;;;;;;;;;;5091261;28;19956;-73
2023/08/31 16:34:05;;;;;;;;;;;;;;;;;;5090816;28;19958;-73
2023/08/31 16:36:32;;;;;;;;;;;;;;;;;;5091200;28;20311;-72
2023/08/31 16:38:57;;;;;;;;;;;;;;;;;;5091826;28;19951;-73
2023/08/31 16:41:24;;;;;;;;;;;;;;;;;;5090569;28;19955;-73
2023/08/31 16:43:53;;;;;;;;;;;;;;;;;;5091031;28;19915;-73
2023/08/31 16:46:19;;;;;;;;;;;;;;;;;;5090837;28;19916;-73
2023/08/31 16:48:45;;;;;;;;;;;;;;;;;;5090521;28;19908;-72
2023/08/31 16:51:11;;;;;;;;;;;;;;;;;;5091111;28;19999;-72
2023/08/31 16:54:09;;;;;;;;;;;;;;;;;;5092067;27;19916;-72
2023/08/31 16:56:35;;;;;;;;;;;;;;;;;;5091017;28;20011;-72
2023/08/31 16:59:02;;;;;;;;;;;;;;;;;;5091362;28;20372;-72
2023/08/31 17:01:27;;;;;;;;;;;;;;;;;;5091160;28;19908;-71
2023/08/31 17:03:53;;;;;;;;;;;;;;;;;;5089451;28;19954;-72
2023/08/31 17:06:19;;;;;;;;;;;;;;;;;;5089860;28;20012;-72
2023/08/31 17:08:45;;;;;;;;;;;;;;;;;;5090842;28;19908;-73
2023/08/31 17:11:11;;;;;;;;;;;;;;;;;;5090425;28;19953;-72
2023/08/31 17:13:37;;;;;;;;;;;;;;;;;;5090975;28;20356;-72
2023/08/31 17:17:36;;;;;;;;;;;;;;;;;;5111401;27;19922;-72
2023/08/31 17:20:05;;;;;;;;;;;;;;;;;;5111635;28;19999;-72
2023/08/31 17:24:58;;;;;;;;;;;;;;;;;;5070718;28;19923;-71
2023/08/31 17:27:24;;;;;;;;;;;;;;;;;;5071166;28;19913;-73
2023/08/31 17:29:50;;;;;;;;;;;;;;;;;;5069622;28;19913;-73
2023/08/31 17:32:16;;;;;;;;;;;;;;;;;;5072221;28;19962;-72
2023/08/31 17:34:42;;;;;;;;;;;;;;;;;;5071333;28;19978;-73
2023/08/31 17:37:09;;;;;;;;;;;;;;;;;;5070710;28;19931;-73
2023/08/31 17:39:34;;;;;;;;;;;;;;;;;;5071072;28;19908;-73
2023/08/31 17:42:00;;;;;;;;;;;;;;;;;;5075920;28;19909;-73
2023/08/31 17:44:26;;;;;;;;;;;;;;;;;;5071212;28;20009;-73
2023/08/31 17:46:53;;;;;;;;;;;;;;;;;;5069902;28;19909;-72
2023/08/31 17:50:17;;;;;;;;;;;;;;;;;;5091889;27;19923;-72
2023/08/31 17:54:44;;;;;;;;;;;;;;;;;;5091441;28;19917;-71
2023/08/31 17:57:10;;;;;;;;;;;;;;;;;;5091784;28;19912;-71
2023/08/31 17:59:46;;;;;;;;;;;;;;;;;;5090956;27;19943;-73
2023/08/31 18:02:12;;;;;;;;;;;;;;;;;;5090384;28;20384;-71
2023/08/31 18:04:38;;;;;;;;;;;;;;;;;;5092103;28;19995;-73
2023/08/31 18:07:07;;;;;;;;;;;;;;;;;;5090569;28;19908;-72
2023/08/31 18:12:31;;;;;;;;;;;;;;;;;;5152686;27;20275;-72
2023/08/31 18:14:57;;;;;;;;;;;;;;;;;;5134367;27;19919;-71
2023/08/31 18:18:26;;;;;;;;;;;;;;;;;;5111967;27;19912;-72
2023/08/31 18:20:52;;;;;;;;;;;;;;;;;;5111795;28;20331;-72
2023/08/31 18:23:18;;;;;;;;;;;;;;;;;;5112847;28;19933;-73
2023/08/31 18:28:07;;;;;;;;;;;;;;;;;;5028400;27;2934720;-73
2023/08/31 18:30:33;;;;;;;;;;;;;;;;;;5132743;28;20006;-73
2023/08/31 18:33:01;;;;;;;;;;;;;;;;;;5132539;28;19947;-73
2023/08/31 18:35:27;;;;;;;;;;;;;;;;;;5113459;28;19912;-73
2023/08/31 18:41:33;;;;;;;;;;;;;;;;;;5091564;27;19916;-74
2023/08/31 18:43:59;;;;;;;;;;;;;;;;;;5095312;28;20433;-74
2023/08/31 18:48:30;;;;;;;;;;;;;;;;;;5115262;27;19973;-73
2023/08/31 18:50:57;;;;;;;;;;;;;;;;;;5112755;28;19979;-73
2023/08/31 18:53:23;;;;;;;;;;;;;;;;;;5111907;28;19908;-73
2023/08/31 18:55:49;;;;;;;;;;;;;;;;;;5111973;28;19996;-73
2023/08/31 19:05:10;;;;;;;;;;;;;;;;;;5111895;27;19912;-73
2023/08/31 19:07:36;;;;;;;;;;;;;;;;;;5111983;28;20448;-73
2023/08/31 19:10:31;;;;;;;;;;;;;;;;;;5091246;27;19912;-73
2023/08/31 19:14:11;;;;;;;;;;;;;;;;;;5091719;28;19916;-71
2023/08/31 19:16:37;;;;;;;;;;;;;;;;;;5091417;28;20011;-72
2023/08/31 19:20:56;;;;;;;;;;;;;;;;;;5091747;27;19923;-71
2023/08/31 19:23:22;;;;;;;;;;;;;;;;;;5091234;28;20042;-71
2023/08/31 19:26:14;;;;;;;;;;;;;;;;;;4295584;27;24561928;-70
2023/08/31 19:29:43;;;;;;;;;;;;;;;;;;5070479;28;19923;-73
2023/08/31 19:32:09;;;;;;;;;;;;;;;;;;5069692;28;19955;-73
2023/08/31 19:34:36;;;;;;;;;;;;;;;;;;5069571;28;20348;-71
2023/08/31 19:37:03;;;;;;;;;;;;;;;;;;5069548;28;19913;-72
2023/08/31 19:42:16;;;;;;;;;;;;;;;;;;5091403;27;19923;-72
2023/08/31 19:44:44;;;;;;;;;;;;;;;;;;5090785;28;19995;-72
2023/08/31 19:47:10;;;;;;;;;;;;;;;;;;5091111;28;19912;-73
2023/08/31 19:49:36;;;;;;;;;;;;;;;;;;5091218;28;19915;-72
2023/08/31 19:52:34;;;;;;;;;;;;;;;;;;5111608;27;19912;-72
2023/08/31 19:55:00;;;;;;;;;;;;;;;;;;5111812;28;19998;-73
2023/08/31 19:57:55;;;;;;;;;;;;;;;;;;5092151;27;19922;-73
2023/08/31 20:00:24;;;;;;;;;;;;;;;;;;5091388;28;19966;-73
2023/08/31 20:05:20;;;;;;;;;;;;;;;;;;5091397;28;19923;-73
2023/08/31 20:07:47;;;;;;;;;;;;;;;;;;5091406;28;19999;-73
2023/08/31 20:11:40;;;;;;;;;;;;;;;;;;5091558;28;19919;-73
2023/08/31 20:14:06;;;;;;;;;;;;;;;;;;5091005;28;19912;-72
2023/08/31 20:16:32;;;;;;;;;;;;;;;;;;5091718;28;19915;-72
2023/08/31 20:19:00;;;;;;;;;;;;;;;;;;5090855;28;20367;-72
2023/08/31 20:21:26;;;;;;;;;;;;;;;;;;5091174;28;19962;-73
2023/08/31 20:23:52;;;;;;;;;;;;;;;;;;5091171;28;19909;-73
2023/08/31 20:26:18;;;;;;;;;;;;;;;;;;5091537;28;19954;-73
2023/08/31 20:30:18;;;;;;;;;;;;;;;;;;5091328;27;19912;-72
2023/08/31 20:33:18;;;;;;;;;;;;;;;;;;5091032;27;20305;-73